Time;durP1;ratioP1;P1;durP2;ratioP2;P2;SDS_P1;SDS_P2;PMS_P1;PMS_P2;Temp;Humidity;BMP_temperature;BMP_pressure;BME280_temperature;BME280_humidity;BME280_pressure;Samples;Min_cycle;Max_cycle;Signal;HPM_P1;HPM_P2
2023/09/07 00:01:06;;;;;;;9.98;8.98;;;15.80;99.90;;;;;;6157029;23;20013;-75
2023/09/07 00:03:32;;;;;;;8.68;7.68;;;15.70;99.90;;;;;;6157708;23;20021;-75
2023/09/07 00:05:57;;;;;;;10.20;8.27;;;15.70;99.90;;;;;;6156724;23;20012;-75
2023/09/07 00:08:25;;;;;;;9.45;8.55;;;15.70;99.90;;;;;;6156576;23;20197;-75
2023/09/07 00:10:51;;;;;;;9.30;8.40;;;15.70;99.90;;;;;;6157014;23;20083;-75
2023/09/07 00:13:16;;;;;;;10.90;9.90;;;15.70;99.90;;;;;;6157123;23;20382;-75
2023/09/07 00:15:43;;;;;;;10.93;9.98;;;15.60;99.90;;;;;;6132798;23;20016;-75
2023/09/07 00:18:09;;;;;;;16.27;14.57;;;15.60;99.90;;;;;;6157111;23;20017;-75
2023/09/07 00:20:35;;;;;;;10.98;9.90;;;15.60;99.90;;;;;;6156707;23;20101;-75
2023/09/07 00:23:01;;;;;;;9.93;8.98;;;15.60;99.90;;;;;;6157139;23;20044;-75
2023/09/07 00:25:27;;;;;;;10.77;9.13;;;15.60;99.90;;;;;;6156764;23;20017;-75
2023/09/07 00:27:52;;;;;;;9.95;8.95;;;15.50;99.90;;;;;;6156848;23;20009;-75
2023/09/07 00:30:18;;;;;;;11.70;10.10;;;15.50;99.90;;;;;;6157032;23;20084;-75
2023/09/07 00:32:44;;;;;;;15.57;13.30;;;15.50;99.90;;;;;;6156500;23;20009;-75
2023/09/07 00:35:10;;;;;;;9.98;9.07;;;15.50;99.90;;;;;;6157401;23;20009;-75
2023/09/07 00:37:36;;;;;;;14.15;12.73;;;15.50;99.90;;;;;;6134207;23;20024;-75
2023/09/07 00:40:03;;;;;;;14.02;12.63;;;15.50;99.90;;;;;;6134712;23;20013;-75
2023/09/07 00:42:29;;;;;;;14.65;13.27;;;15.50;99.90;;;;;;6134246;23;20084;-75
2023/09/07 00:44:54;;;;;;;10.70;9.50;;;15.40;99.90;;;;;;6158898;23;20063;-75
2023/09/07 00:47:21;;;;;;;10.30;9.40;;;15.40;99.90;;;;;;6158712;23;20162;-76
2023/09/07 00:49:46;;;;;;;14.45;12.93;;;15.40;99.90;;;;;;6159126;23;20013;-75
2023/09/07 00:52:12;;;;;;;15.40;13.05;;;15.40;99.90;;;;;;6183769;23;20460;-75
2023/09/07 00:54:40;;;;;;;10.77;9.80;;;15.40;99.90;;;;;;6159213;23;20005;-75
2023/09/07 00:57:06;;;;;;;24.13;14.88;;;15.40;99.90;;;;;;6158454;23;20019;-75
2023/09/07 00:59:35;;;;;;;15.30;13.43;;;15.40;99.90;;;;;;6158890;23;20013;-75
2023/09/07 01:02:00;;;;;;;14.18;12.85;;;15.40;99.90;;;;;;6158022;23;20458;-75
2023/09/07 01:04:26;;;;;;;13.57;12.27;;;15.40;99.90;;;;;;6183554;23;20024;-75
2023/09/07 01:06:57;;;;;;;17.45;14.63;;;15.40;99.90;;;;;;6158936;23;20020;-75
2023/09/07 01:09:27;;;;;;;11.43;10.43;;;15.40;99.90;;;;;;6134222;23;20121;-75
2023/09/07 01:11:53;;;;;;;12.73;11.43;;;15.40;99.90;;;;;;6157810;23;20016;-75
2023/09/07 01:14:19;;;;;;;31.45;20.60;;;15.40;99.90;;;;;;6158579;23;20021;-75
2023/09/07 01:16:45;;;;;;;13.68;12.13;;;15.30;99.90;;;;;;6158888;23;20024;-75
2023/09/07 01:19:10;;;;;;;15.65;14.27;;;15.40;99.90;;;;;;6158200;23;20013;-75
2023/09/07 01:21:38;;;;;;;14.48;12.70;;;15.40;99.90;;;;;;6158224;23;20053;-75
2023/09/07 01:24:09;;;;;;;24.65;18.83;;;15.40;99.90;;;;;;6158888;23;20013;-75
2023/09/07 01:26:38;;;;;;;16.48;15.00;;;15.30;99.90;;;;;;6133663;23;20019;-75
2023/09/07 01:29:05;;;;;;;21.95;19.90;;;15.40;99.90;;;;;;6158390;23;20017;-75
2023/09/07 01:31:30;;;;;;;27.45;24.48;;;15.40;99.90;;;;;;6158818;23;20084;-75
2023/09/07 01:33:56;;;;;;;16.25;14.80;;;15.40;99.90;;;;;;6158800;23;20053;-75
2023/09/07 01:36:21;;;;;;;15.73;14.45;;;15.40;99.90;;;;;;6158453;23;20048;-75
2023/09/07 01:38:47;;;;;;;16.42;15.13;;;15.40;99.90;;;;;;6158500;23;20089;-75
2023/09/07 01:41:12;;;;;;;15.00;13.60;;;15.40;99.90;;;;;;6158120;23;20503;-75
2023/09/07 01:43:39;;;;;;;18.67;17.02;;;15.40;99.90;;;;;;6158418;23;20353;-75
2023/09/07 01:46:04;;;;;;;16.60;15.18;;;15.40;99.90;;;;;;6157971;23;20071;-75
2023/09/07 01:48:30;;;;;;;16.27;14.98;;;15.40;99.90;;;;;;6183352;23;20017;-75
2023/09/07 01:50:55;;;;;;;23.42;21.38;;;15.40;99.90;;;;;;6157419;23;20009;-75
2023/09/07 01:53:21;;;;;;;17.02;15.32;;;15.40;99.90;;;;;;6158604;23;20020;-75
2023/09/07 01:55:47;;;;;;;16.35;14.98;;;15.40;99.90;;;;;;6158662;23;20020;-75
2023/09/07 01:58:13;;;;;;;16.45;14.95;;;15.40;99.90;;;;;;6157839;23;20418;-75
2023/09/07 02:00:39;;;;;;;15.93;14.68;;;15.50;99.90;;;;;;6157301;23;20020;-75
2023/09/07 02:03:05;;;;;;;19.15;17.45;;;15.50;99.90;;;;;;6158528;23;20020;-75
2023/09/07 02:05:34;;;;;;;16.73;15.07;;;15.60;99.90;;;;;;6157923;23;20461;-75
2023/09/07 02:08:00;;;;;;;13.32;12.15;;;15.60;99.90;;;;;;6158112;23;20017;-75
2023/09/07 02:10:25;;;;;;;12.93;11.80;;;15.60;99.90;;;;;;6158561;23;20434;-75
2023/09/07 02:12:51;;;;;;;15.23;13.75;;;15.60;99.90;;;;;;6157481;23;20006;-75
2023/09/07 02:15:17;;;;;;;15.70;14.30;;;15.60;99.90;;;;;;6157585;23;20071;-75
2023/09/07 02:17:44;;;;;;;18.73;16.67;;;15.60;99.90;;;;;;6158095;23;20013;-75
2023/09/07 02:20:11;;;;;;;17.38;15.88;;;15.60;99.90;;;;;;6158417;23;20092;-75
2023/09/07 02:22:38;;;;;;;15.95;14.07;;;15.60;99.90;;;;;;6158017;23;20013;-75
2023/09/07 02:25:05;;;;;;;15.88;14.45;;;15.50;99.90;;;;;;6157925;23;20056;-75
2023/09/07 02:27:34;;;;;;;17.08;15.52;;;15.50;99.90;;;;;;6157630;23;20020;-75
2023/09/07 02:30:01;;;;;;;14.00;12.77;;;15.50;99.90;;;;;;6153385;23;20020;-83
2023/09/07 02:32:27;;;;;;;16.23;14.60;;;15.40;99.90;;;;;;6128826;23;20020;-83
2023/09/07 02:34:53;;;;;;;15.00;13.57;;;15.40;99.90;;;;;;6129331;23;20006;-83
2023/09/07 02:37:22;;;;;;;16.13;14.48;;;15.30;99.90;;;;;;6129018;23;20049;-83
2023/09/07 02:39:47;;;;;;;13.57;12.32;;;15.30;99.90;;;;;;6128096;23;20296;-83
2023/09/07 02:42:13;;;;;;;14.48;13.18;;;15.30;99.90;;;;;;6128654;23;20021;-83
2023/09/07 02:44:39;;;;;;;13.90;12.43;;;15.20;99.90;;;;;;6129375;23;20041;-83
2023/09/07 02:47:04;;;;;;;14.43;13.23;;;15.20;99.90;;;;;;6129324;23;20366;-84
2023/09/07 02:49:30;;;;;;;14.90;13.68;;;15.20;99.90;;;;;;6153487;23;20013;-83
2023/09/07 02:51:56;;;;;;;14.77;13.52;;;15.10;99.90;;;;;;6152728;23;20345;-83
2023/09/07 02:54:26;;;;;;;15.50;14.02;;;15.10;99.90;;;;;;6128482;23;20348;-83
2023/09/07 02:56:51;;;;;;;15.23;13.73;;;15.10;99.90;;;;;;6153489;23;20020;-83
2023/09/07 02:59:22;;;;;;;16.15;14.75;;;15.10;99.90;;;;;;6128761;23;20442;-84
2023/09/07 03:01:48;;;;;;;15.45;14.15;;;15.10;99.90;;;;;;6128480;23;20104;-83
2023/09/07 03:04:14;;;;;;;14.18;12.90;;;15.00;99.90;;;;;;6152771;23;20099;-83
2023/09/07 03:06:39;;;;;;;14.68;13.48;;;15.10;99.90;;;;;;6127566;23;20013;-83
2023/09/07 03:09:08;;;;;;;18.42;15.55;;;15.00;99.90;;;;;;6128577;23;20037;-84
2023/09/07 03:11:37;;;;;;;17.13;15.55;;;15.10;99.90;;;;;;6128292;23;20350;-83
2023/09/07 03:14:02;;;;;;;19.98;18.17;;;15.00;99.90;;;;;;6152790;23;20011;-84
2023/09/07 03:16:30;;;;;;;19.17;17.33;;;15.00;99.90;;;;;;6128748;23;20195;-84
2023/09/07 03:18:57;;;;;;;18.85;16.73;;;15.00;99.90;;;;;;6127716;23;20049;-83
2023/09/07 03:21:29;;;;;;;17.08;15.68;;;15.00;99.90;;;;;;6152641;23;20021;-84
2023/09/07 03:23:58;;;;;;;20.80;18.77;;;14.90;99.90;;;;;;6128735;23;20095;-83
2023/09/07 03:26:24;;;;;;;14.82;13.52;;;15.00;99.90;;;;;;6128556;23;20025;-84
2023/09/07 03:28:57;;;;;;;18.80;17.10;;;15.10;99.90;;;;;;6128293;23;20010;-84
2023/09/07 03:31:29;;;;;;;16.33;15.02;;;15.20;99.90;;;;;;6128025;23;20014;-85
2023/09/07 03:33:58;;;;;;;15.43;14.18;;;15.20;99.90;;;;;;6127118;23;20014;-84
2023/09/07 03:36:36;;;;;;;14.63;13.43;;;15.20;99.90;;;;;;6127522;23;20019;-84
2023/09/07 03:39:07;;;;;;;16.35;14.95;;;15.20;99.90;;;;;;6128038;23;20390;-84
2023/09/07 03:41:34;;;;;;;14.20;12.80;;;15.40;99.90;;;;;;6152436;23;20018;-84
2023/09/07 03:44:00;;;;;;;15.68;14.18;;;15.40;99.90;;;;;;6128422;23;20023;-84
2023/09/07 03:46:58;;;;;;;14.57;13.23;;;15.60;99.90;;;;;;6152769;23;20097;-84
2023/09/07 03:49:30;;;;;;;13.07;11.88;;;15.70;99.90;;;;;;6152041;23;20018;-84
2023/09/07 03:51:56;;;;;;;14.40;13.23;;;15.70;99.90;;;;;;6128019;23;20040;-85
2023/09/07 03:54:24;;;;;;;14.63;13.32;;;15.80;99.90;;;;;;6128535;23;20399;-83
2023/09/07 03:56:50;;;;;;;13.52;12.43;;;15.70;99.90;;;;;;6127975;23;20017;-84
2023/09/07 03:59:16;;;;;;;12.85;11.75;;;15.80;99.90;;;;;;6152316;23;20097;-85
2023/09/07 04:01:44;;;;;;;14.43;13.32;;;15.90;99.90;;;;;;6152464;23;20080;-84
2023/09/07 04:04:22;;;;;;;12.35;11.23;;;15.90;99.90;;;;;;6153003;23;20014;-84
2023/09/07 04:06:51;;;;;;;11.82;10.63;;;16.00;99.90;;;;;;6128885;23;20013;-84
2023/09/07 04:09:16;;;;;;;12.02;11.02;;;16.00;99.90;;;;;;6127562;23;20006;-84
2023/09/07 04:11:42;;;;;;;12.20;10.93;;;16.00;99.90;;;;;;6151866;23;20440;-83
2023/09/07 04:14:08;;;;;;;12.55;11.35;;;15.90;99.90;;;;;;6128235;23;20438;-84
2023/09/07 04:16:36;;;;;;;11.75;10.75;;;16.00;99.90;;;;;;6128329;23;20013;-85
2023/09/07 04:19:01;;;;;;;12.13;11.13;;;16.00;99.90;;;;;;6128637;23;20405;-84
2023/09/07 04:21:27;;;;;;;12.70;10.77;;;16.10;99.90;;;;;;6127378;23;20049;-84
2023/09/07 04:23:55;;;;;;;11.57;10.57;;;16.10;99.90;;;;;;6127883;23;20024;-85
2023/09/07 04:26:21;;;;;;;11.32;10.32;;;16.20;99.90;;;;;;6127592;23;20227;-84
2023/09/07 04:28:49;;;;;;;10.95;9.90;;;16.20;99.90;;;;;;6127760;23;20464;-85
2023/09/07 04:31:27;;;;;;;11.70;10.80;;;16.30;99.90;;;;;;6128665;23;20064;-84
2023/09/07 04:33:53;;;;;;;13.13;12.02;;;16.30;99.90;;;;;;6128280;23;20020;-84
2023/09/07 04:36:19;;;;;;;11.98;10.40;;;16.40;99.90;;;;;;6128157;23;20043;-84
2023/09/07 04:38:44;;;;;;;12.05;11.05;;;16.40;99.90;;;;;;6126714;23;20450;-84
2023/09/07 04:41:15;;;;;;;11.45;10.32;;;16.30;99.90;;;;;;6128089;23;20010;-84
2023/09/07 04:43:53;;;;;;;11.68;10.77;;;16.30;99.90;;;;;;6128105;23;20018;-84
2023/09/07 04:46:24;;;;;;;11.45;10.45;;;16.30;99.90;;;;;;6152130;23;20026;-84
2023/09/07 04:48:55;;;;;;;;;;;16.30;99.90;;;;;;6128555;23;20010;-84
2023/09/07 04:51:26;;;;;;;11.57;10.57;;;16.40;99.90;;;;;;6127572;23;19913;-84
2023/09/07 04:53:52;;;;;;;11.95;10.95;;;16.40;99.90;;;;;;6152760;23;20014;-83
2023/09/07 04:56:20;;;;;;;10.70;9.70;;;16.40;99.90;;;;;;6152892;23;20354;-84
2023/09/07 04:58:45;;;;;;;11.32;10.43;;;16.40;99.90;;;;;;6127878;23;20009;-83
2023/09/07 05:01:40;;;;;;;12.23;11.00;;;16.40;99.90;;;;;;6152428;23;20021;-84
2023/09/07 05:04:08;;;;;;;12.07;11.05;;;16.40;99.90;;;;;;6136925;23;20035;-84
2023/09/07 05:06:37;;;;;;;11.43;10.43;;;16.40;99.90;;;;;;6152342;23;20072;-84
2023/09/07 05:09:05;;;;;;;12.00;11.00;;;16.40;99.90;;;;;;6152122;23;20009;-84
2023/09/07 05:11:34;;;;;;;12.13;11.05;;;16.40;99.90;;;;;;6152775;23;20025;-84
2023/09/07 05:14:05;;;;;;;11.75;10.85;;;16.40;99.90;;;;;;6151898;23;20009;-83
2023/09/07 05:16:31;;;;;;;12.65;11.55;;;16.40;99.90;;;;;;6152629;23;20450;-84
2023/09/07 05:19:04;;;;;;;12.20;11.05;;;16.40;99.90;;;;;;6127556;23;20049;-84
2023/09/07 05:21:33;;;;;;;11.48;10.52;;;16.40;99.90;;;;;;6127417;23;20092;-85
2023/09/07 05:23:59;;;;;;;12.48;11.38;;;16.50;99.90;;;;;;6152452;23;20370;-85
2023/09/07 05:26:32;;;;;;;11.60;10.60;;;16.50;99.90;;;;;;6129581;23;20020;-84
2023/09/07 05:29:14;;;;;;;13.05;11.95;;;16.50;99.90;;;;;;6153641;23;20346;-84
2023/09/07 05:31:49;;;;;;;12.38;11.20;;;16.50;99.90;;;;;;6130065;23;20017;-84
2023/09/07 05:37:21;;;;;;;13.38;12.27;;;16.50;99.90;;;;;;6145043;23;20020;-84
2023/09/07 05:40:14;;;;;;;12.80;11.70;;;16.50;99.90;;;;;;6129500;23;20041;-84
2023/09/07 05:42:42;;;;;;;13.05;11.80;;;16.50;99.90;;;;;;6154430;23;20093;-83
2023/09/07 05:48:41;;;;;;;12.18;11.07;;;16.50;99.90;;;;;;6154216;23;20040;-83
2023/09/07 05:51:18;;;;;;;15.15;14.00;;;16.50;99.90;;;;;;6153921;23;20087;-83
2023/09/07 05:53:58;;;;;;;14.63;13.20;;;16.50;99.90;;;;;;6154194;23;20045;-83
2023/09/07 05:56:24;;;;;;;13.45;12.27;;;16.50;99.90;;;;;;6153782;23;20024;-85
2023/09/07 05:58:56;;;;;;;12.43;11.15;;;16.50;99.90;;;;;;6153362;23;20009;-83
2023/09/07 06:01:36;;;;;;;12.93;11.75;;;16.60;99.90;;;;;;6153731;23;20013;-83
2023/09/07 06:04:08;;;;;;;15.27;14.02;;;16.60;99.90;;;;;;6130759;23;20018;-83
2023/09/07 06:06:38;;;;;;;14.98;13.57;;;16.80;99.90;;;;;;6129861;23;20075;-84
2023/09/07 06:09:20;;;;;;;13.38;12.18;;;16.70;99.90;;;;;;6130093;23;20018;-83
2023/09/07 06:11:57;;;;;;;13.30;12.18;;;16.70;99.90;;;;;;6153741;23;20417;-83
2023/09/07 06:14:25;;;;;;;13.20;12.00;;;16.80;99.90;;;;;;6153743;23;20015;-84
2023/09/07 06:17:02;;;;;;;13.23;12.13;;;16.80;99.90;;;;;;6152805;23;20072;-83
2023/09/07 06:20:19;;;;;;;12.57;11.40;;;16.90;99.90;;;;;;6153957;23;20462;-83
2023/09/07 06:22:53;;;;;;;12.82;11.73;;;17.00;99.90;;;;;;6081488;23;20389;-83
2023/09/07 06:25:20;;;;;;;12.80;11.65;;;17.10;99.90;;;;;;6128255;23;20413;-84
2023/09/07 06:27:45;;;;;;;12.27;11.18;;;17.10;99.90;;;;;;6127238;23;20009;-84
2023/09/07 06:30:11;;;;;;;12.00;11.00;;;17.20;99.90;;;;;;6153361;23;20005;-84
2023/09/07 06:32:38;;;;;;;12.50;11.38;;;17.20;99.90;;;;;;6152758;23;20385;-85
2023/09/07 06:35:12;;;;;;;12.15;11.00;;;17.30;99.90;;;;;;6149527;23;20021;-84
2023/09/07 06:37:40;;;;;;;11.82;10.73;;;17.40;99.90;;;;;;6128116;23;20013;-84
2023/09/07 06:40:07;;;;;;;12.38;11.27;;;17.50;99.90;;;;;;6152982;23;20068;-84
2023/09/07 06:42:32;;;;;;;13.38;12.02;;;17.60;99.90;;;;;;6152974;23;20013;-89
2023/09/07 06:45:00;;;;;;;11.98;10.88;;;17.70;99.90;;;;;;6129488;23;20014;-89
2023/09/07 06:47:29;;;;;;;11.45;10.48;;;17.80;99.90;;;;;;6129705;23;20446;-89
2023/09/07 06:50:18;;;;;;;12.20;11.10;;;17.90;99.90;;;;;;6129617;23;20312;-89
2023/09/07 06:52:55;;;;;;;12.55;11.35;;;18.00;99.90;;;;;;6130177;23;20438;-89
2023/09/07 06:55:26;;;;;;;12.75;11.57;;;18.00;99.90;;;;;;6128517;23;20014;-89
2023/09/07 06:57:54;;;;;;;13.32;12.02;;;18.10;99.90;;;;;;6128693;23;20064;-89
2023/09/07 07:00:54;;;;;;;;;;;;;;;;;;;;;
2023/09/07 07:03:31;;;;;;;13.85;12.65;;;18.10;99.90;;;;;;6153208;23;20018;-89
2023/09/07 07:06:42;;;;;;;12.68;11.48;;;18.10;99.90;;;;;;6129129;23;20049;-88
2023/09/07 07:10:00;;;;;;;12.55;11.48;;;18.10;99.90;;;;;;6071541;23;20096;-89
2023/09/07 07:13:17;;;;;;;;;;;;;;;;;;;;;
2023/09/07 07:16:09;;;;;;;13.27;12.05;;;18.30;99.90;;;;;;6150873;23;20081;-89
2023/09/07 07:18:36;;;;;;;11.85;10.82;;;18.30;99.90;;;;;;6129073;23;20044;-89
2023/09/07 07:21:40;;;;;;;12.00;11.00;;;18.40;99.90;;;;;;6129005;23;20017;-90
2023/09/07 07:24:45;;;;;;;;;;;;;;;;;;;;;
2023/09/07 07:35:07;;;;;;;12.68;11.38;;;18.80;99.90;;;;;;6135059;23;20071;-90
2023/09/07 07:45:36;;;;;;;10.30;9.35;;;19.20;99.90;;;;;;6111803;23;20354;-89
2023/09/07 07:52:07;;;;;;;9.82;8.93;;;19.30;99.90;;;;;;6150054;23;20089;-89
2023/09/07 07:54:36;;;;;;;10.27;9.13;;;19.50;99.90;;;;;;6129114;23;20010;-88
2023/09/07 08:00:47;;;;;;;9.63;8.55;;;19.70;99.90;;;;;;6088171;23;20410;-87
2023/09/07 08:07:29;;;;;;;10.32;9.43;;;20.00;99.90;;;;;;6142900;23;20060;-89
2023/09/07 08:10:09;;;;;;;10.43;9.43;;;20.20;99.90;;;;;;6126811;23;20010;-89
2023/09/07 08:12:38;;;;;;;9.20;8.32;;;20.20;99.90;;;;;;6128532;23;20014;-89
2023/09/07 08:15:06;;;;;;;9.68;8.70;;;20.40;99.90;;;;;;6126700;23;20093;-88
2023/09/07 08:17:34;;;;;;;9.25;8.32;;;20.50;99.90;;;;;;6128363;23;20017;-88
2023/09/07 08:20:03;;;;;;;9.02;8.05;;;20.70;99.90;;;;;;6128165;23;20048;-87
2023/09/07 08:22:28;;;;;;;8.40;7.55;;;21.00;99.90;;;;;;6128778;23;20144;-88
2023/09/07 08:24:59;;;;;;;9.02;8.13;;;21.10;99.90;;;;;;6128974;23;20017;-89
2023/09/07 08:27:25;;;;;;;9.75;7.80;;;21.30;99.90;;;;;;6128848;23;20017;-89
2023/09/07 08:29:54;;;;;;;8.35;7.55;;;21.40;99.90;;;;;;6135098;23;20044;-81
2023/09/07 08:32:22;;;;;;;8.38;7.57;;;21.60;99.90;;;;;;6135123;23;20017;-80
2023/09/07 08:34:56;;;;;;;8.15;7.43;;;21.70;99.90;;;;;;6160457;23;20076;-83
2023/09/07 08:37:31;;;;;;;9.18;8.38;;;21.80;99.90;;;;;;6164722;23;20096;-82
2023/09/07 08:41:05;;;;;;;9.60;8.70;;;22.50;99.90;;;;;;6168354;23;20524;-82
2023/09/07 08:44:09;;;;;;;7.70;6.90;;;23.50;99.90;;;;;;6141603;23;20020;-82
2023/09/07 08:46:36;;;;;;;9.18;7.15;;;24.50;99.90;;;;;;6109694;23;20017;-80
2023/09/07 08:49:03;;;;;;;8.30;7.13;;;25.10;99.90;;;;;;6109128;23;20072;-79
2023/09/07 08:51:48;;;;;;;7.80;7.07;;;25.60;99.90;;;;;;6134120;23;20013;-81
2023/09/07 08:54:22;;;;;;;7.63;6.68;;;25.90;99.90;;;;;;6138870;23;20314;-82
2023/09/07 08:56:50;;;;;;;7.70;7.03;;;26.20;99.90;;;;;;6134075;23;20452;-80
2023/09/07 09:03:34;;;;;;;7.90;7.10;;;26.60;99.90;;;;;;6130994;23;20406;-80
2023/09/07 09:06:53;;;;;;;8.25;6.45;;;26.90;99.90;;;;;;6136026;23;20017;-81
2023/09/07 09:09:53;;;;;;;9.30;6.35;;;27.10;96.20;;;;;;6162069;23;20013;-82
2023/09/07 09:12:21;;;;;;;7.82;5.90;;;27.10;99.90;;;;;;6163040;23;20013;-80
2023/09/07 09:15:26;;;;;;;8.48;6.30;;;27.20;90.40;;;;;;6138986;23;20315;-82
2023/09/07 09:18:46;;;;;;;8.00;5.88;;;27.10;99.90;;;;;;6164962;23;20059;-82
2023/09/07 09:21:16;;;;;;;8.25;6.63;;;27.10;99.90;;;;;;6126917;23;20009;-81
2023/09/07 09:23:57;;;;;;;7.15;6.45;;;27.10;98.90;;;;;;6139553;23;20020;-78
2023/09/07 09:26:26;;;;;;;6.80;6.20;;;27.20;96.00;;;;;;6138763;23;20091;-79
2023/09/07 09:29:04;;;;;;;9.05;6.15;;;27.20;97.70;;;;;;6138195;23;20032;-80
2023/09/07 09:31:54;;;;;;;7.07;5.93;;;27.10;96.80;;;;;;6169664;23;20027;-81
2023/09/07 09:34:53;;;;;;;8.00;6.35;;;27.10;96.80;;;;;;6140371;23;20017;-81
2023/09/07 09:37:31;;;;;;;6.80;6.07;;;27.10;95.70;;;;;;6137844;23;20401;-78
2023/09/07 09:40:10;;;;;;;6.78;6.07;;;27.10;90.40;;;;;;6163311;23;20066;-80
2023/09/07 09:42:43;;;;;;;7.93;5.85;;;27.10;90.50;;;;;;6137806;23;20013;-80
2023/09/07 09:45:17;;;;;;;7.05;6.35;;;27.10;89.20;;;;;;6131137;23;20021;-78
2023/09/07 09:47:44;;;;;;;6.80;6.18;;;27.10;83.50;;;;;;6114661;23;20013;-80
2023/09/07 09:50:48;;;;;;;7.35;6.50;;;27.10;85.50;;;;;;6138822;23;20088;-81
2023/09/07 09:53:58;;;;;;;6.63;5.57;;;27.00;99.00;;;;;;6179110;23;20020;-82
2023/09/07 09:57:35;;;;;;;;;;;;;;;;;;;;;
2023/09/07 10:04:25;;;;;;;;;;;;;;;;;;;;;
2023/09/07 10:12:09;;;;;;;5.90;5.30;;;28.40;77.80;;;;;;6076240;23;20126;-82
2023/09/07 10:14:45;;;;;;;7.32;5.63;;;28.50;92.00;;;;;;6074681;23;20062;-82
2023/09/07 10:17:37;;;;;;;7.63;4.90;;;28.50;75.90;;;;;;6098657;23;20017;-79
2023/09/07 10:24:48;;;;;;;;;;;;;;;;;;;;;
2023/09/07 10:27:51;;;;;;;5.43;4.90;;;28.80;73.50;;;;;;5987465;23;20514;-82
2023/09/07 10:33:55;;;;;;;7.20;5.30;;;28.70;88.30;;;;;;6189837;23;20036;-80
2023/09/07 10:36:27;;;;;;;6.35;5.22;;;28.90;77.40;;;;;;6136506;23;20381;-81
2023/09/07 10:45:44;;;;;;;6.63;4.40;;;29.00;87.00;;;;;;6184782;23;20025;-78
2023/09/07 10:48:11;;;;;;;5.60;5.00;;;29.20;77.40;;;;;;6157969;23;20092;-78
2023/09/07 10:50:47;;;;;;;5.40;4.90;;;29.30;73.70;;;;;;6157703;23;20031;-79
2023/09/07 10:53:25;;;;;;;8.07;4.95;;;29.50;72.50;;;;;;6132970;23;20326;-78
2023/09/07 10:55:51;;;;;;;6.82;4.35;;;29.60;73.40;;;;;;6133473;23;20084;-78
2023/09/07 10:58:26;;;;;;;5.80;4.32;;;29.40;76.40;;;;;;6157365;23;20045;-78
2023/09/07 11:00:53;;;;;;;6.57;4.63;;;29.50;73.70;;;;;;6158144;23;20009;-79
2023/09/07 11:03:18;;;;;;;5.80;5.20;;;29.60;74.30;;;;;;6157982;23;20461;-76
2023/09/07 11:05:44;;;;;;;5.30;4.80;;;29.90;70.30;;;;;;6156628;23;20012;-78
2023/09/07 11:08:10;;;;;;;5.65;4.97;;;30.10;67.80;;;;;;6132350;23;20024;-78
2023/09/07 11:10:37;;;;;;;5.97;5.35;;;30.00;67.30;;;;;;6133057;23;20047;-79
2023/09/07 11:13:05;;;;;;;6.05;4.93;;;30.00;67.80;;;;;;6134059;23;20093;-78
2023/09/07 11:15:35;;;;;;;6.18;4.47;;;29.90;70.00;;;;;;6156867;23;20457;-76
2023/09/07 11:18:06;;;;;;;6.40;4.55;;;30.00;67.60;;;;;;6157063;23;20009;-78
2023/09/07 11:20:32;;;;;;;7.72;5.22;;;30.00;70.10;;;;;;6157428;23;20020;-76
2023/09/07 11:22:58;;;;;;;8.30;4.90;;;30.00;66.60;;;;;;6133342;23;20025;-77
2023/09/07 11:25:24;;;;;;;5.53;4.60;;;30.00;66.70;;;;;;6182134;23;20125;-77
2023/09/07 11:27:54;;;;;;;5.85;4.93;;;29.90;69.00;;;;;;6157191;23;20509;-76
2023/09/07 11:30:20;;;;;;;5.15;4.20;;;30.00;66.90;;;;;;6156293;23;20013;-78
2023/09/07 11:32:46;;;;;;;7.75;4.85;;;30.10;65.60;;;;;;6157801;23;20032;-78
2023/09/07 11:35:12;;;;;;;4.97;4.55;;;30.10;65.30;;;;;;6158067;23;20461;-78
2023/09/07 11:37:37;;;;;;;5.00;4.50;;;30.20;64.20;;;;;;6156806;23;20461;-76
2023/09/07 11:40:10;;;;;;;6.22;4.60;;;30.10;65.40;;;;;;6157654;23;20405;-76
2023/09/07 11:42:36;;;;;;;6.10;4.82;;;30.30;63.70;;;;;;6157463;23;20009;-77
2023/09/07 11:45:02;;;;;;;7.47;4.50;;;30.30;63.60;;;;;;6157106;23;20216;-79
2023/09/07 11:47:28;;;;;;;5.55;4.72;;;30.30;66.20;;;;;;6156843;23;20024;-78
2023/09/07 11:49:53;;;;;;;4.85;4.40;;;30.40;64.60;;;;;;6156215;23;20064;-78
2023/09/07 11:52:19;;;;;;;5.45;4.38;;;30.40;64.70;;;;;;6157180;23;20017;-79
2023/09/07 11:54:45;;;;;;;6.22;4.28;;;30.50;63.00;;;;;;6157234;23;20394;-78
2023/09/07 11:57:10;;;;;;;6.05;4.03;;;30.60;63.10;;;;;;6156746;23;20021;-77
2023/09/07 11:59:36;;;;;;;5.43;4.60;;;30.70;61.40;;;;;;6157563;23;20016;-78
2023/09/07 12:02:01;;;;;;;5.90;4.32;;;30.80;60.60;;;;;;6157540;23;20041;-79
2023/09/07 12:04:27;;;;;;;5.22;3.97;;;30.80;60.40;;;;;;6180854;23;20009;-81
2023/09/07 12:06:53;;;;;;;4.80;4.35;;;30.70;61.00;;;;;;6156652;23;20354;-78
2023/09/07 12:09:18;;;;;;;4.85;4.03;;;30.70;59.60;;;;;;6156750;23;20092;-78
2023/09/07 12:11:44;;;;;;;6.43;4.40;;;30.70;60.00;;;;;;6157877;23;20013;-78
2023/09/07 12:14:09;;;;;;;5.25;4.10;;;30.70;59.60;;;;;;6156459;23;20013;-78
2023/09/07 12:16:35;;;;;;;5.82;4.47;;;30.70;60.00;;;;;;6156920;23;20013;-78
2023/09/07 12:19:00;;;;;;;6.25;4.50;;;30.80;59.00;;;;;;6156137;23;20020;-78
2023/09/07 12:21:26;;;;;;;5.78;4.32;;;30.80;58.10;;;;;;6157686;23;20013;-78
2023/09/07 12:23:51;;;;;;;4.55;4.15;;;30.80;57.70;;;;;;6157013;23;20052;-78
2023/09/07 12:26:19;;;;;;;6.50;4.03;;;30.80;57.60;;;;;;6157400;23;20349;-78
2023/09/07 12:28:44;;;;;;;5.40;4.25;;;30.80;57.30;;;;;;6156865;23;20005;-77
2023/09/07 12:31:11;;;;;;;5.57;4.00;;;30.70;57.40;;;;;;6131855;23;20009;-78
2023/09/07 12:33:37;;;;;;;4.30;3.60;;;30.80;59.80;;;;;;6156801;23;20016;-77
2023/09/07 12:36:03;;;;;;;5.57;3.80;;;31.10;58.40;;;;;;6158231;23;20009;-77
2023/09/07 12:38:29;;;;;;;5.85;4.20;;;31.30;57.50;;;;;;6157660;23;20057;-77
2023/09/07 12:40:55;;;;;;;6.03;3.60;;;31.40;56.60;;;;;;6159107;23;20013;-78
2023/09/07 12:43:20;;;;;;;4.85;3.90;;;31.30;56.60;;;;;;6159363;23;20020;-78
2023/09/07 12:45:46;;;;;;;4.68;3.95;;;31.40;57.20;;;;;;6159380;23;20361;-77
2023/09/07 12:48:12;;;;;;;5.82;3.92;;;31.60;55.90;;;;;;6158490;23;20016;-78
2023/09/07 12:50:40;;;;;;;4.82;3.70;;;31.70;56.00;;;;;;6158677;23;20005;-77
2023/09/07 12:53:05;;;;;;;5.38;3.72;;;31.70;57.20;;;;;;6159398;23;20071;-77
2023/09/07 12:55:32;;;;;;;5.30;3.83;;;31.80;57.30;;;;;;6134126;23;20445;-78
2023/09/07 12:57:58;;;;;;;5.97;4.38;;;31.70;59.10;;;;;;6158048;23;20013;-77
2023/09/07 13:00:24;;;;;;;5.85;4.10;;;31.70;56.90;;;;;;6158063;23;20013;-78
2023/09/07 13:02:50;;;;;;;4.05;3.65;;;31.70;58.80;;;;;;6158959;23;20116;-78
2023/09/07 13:05:15;;;;;;;4.88;3.88;;;31.70;57.00;;;;;;6158273;23;20017;-78
2023/09/07 13:07:43;;;;;;;4.93;3.92;;;31.70;56.30;;;;;;6158312;23;20536;-79
2023/09/07 13:10:10;;;;;;;5.07;3.90;;;31.60;55.10;;;;;;6158149;23;20013;-78
2023/09/07 13:12:36;;;;;;;4.22;3.80;;;31.50;56.00;;;;;;6157566;23;20454;-78
2023/09/07 13:15:03;;;;;;;5.07;3.67;;;31.40;57.20;;;;;;6156326;23;20009;-78
2023/09/07 13:17:28;;;;;;;5.55;3.85;;;31.50;56.40;;;;;;6155708;23;20009;-78
2023/09/07 13:19:54;;;;;;;4.65;3.85;;;31.40;56.70;;;;;;6156732;23;20017;-77
2023/09/07 13:22:20;;;;;;;4.85;3.80;;;31.40;55.90;;;;;;6132284;23;20020;-78
2023/09/07 13:24:45;;;;;;;3.92;3.50;;;31.40;56.70;;;;;;6156800;23;20382;-78
2023/09/07 13:27:11;;;;;;;4.35;3.92;;;31.30;56.80;;;;;;6157891;23;20453;-80
2023/09/07 13:29:37;;;;;;;6.28;3.67;;;31.30;55.60;;;;;;6159530;23;20477;-80
2023/09/07 13:32:03;;;;;;;7.72;3.88;;;31.30;56.40;;;;;;6158857;23;20354;-79
2023/09/07 13:34:28;;;;;;;6.15;3.90;;;31.40;56.40;;;;;;6158428;23;20457;-79
2023/09/07 13:36:55;;;;;;;4.70;4.20;;;31.40;57.80;;;;;;6159069;23;20020;-78
2023/09/07 13:39:21;;;;;;;5.35;3.92;;;31.40;56.60;;;;;;6158427;23;20017;-79
2023/09/07 13:41:47;;;;;;;5.88;3.63;;;31.40;55.70;;;;;;6157676;23;20512;-78
2023/09/07 13:44:14;;;;;;;6.00;3.90;;;31.40;56.30;;;;;;6182671;23;20017;-77
2023/09/07 13:46:39;;;;;;;7.78;4.30;;;31.30;56.20;;;;;;6157653;23;20017;-79
2023/09/07 13:49:05;;;;;;;4.68;3.50;;;31.30;57.20;;;;;;6183643;23;20039;-78
2023/09/07 13:51:38;;;;;;;6.18;3.92;;;31.10;57.50;;;;;;6182608;23;20015;-81
2023/09/07 13:54:08;;;;;;;5.15;3.50;;;31.10;58.70;;;;;;6159436;23;20044;-78
2023/09/07 13:56:33;;;;;;;4.55;3.70;;;31.00;61.00;;;;;;6158111;23;20013;-80
2023/09/07 13:59:00;;;;;;;4.63;3.63;;;31.10;57.00;;;;;;6158039;23;20009;-78
2023/09/07 14:01:25;;;;;;;4.90;4.00;;;31.00;57.20;;;;;;6157652;23;20122;-78
2023/09/07 14:03:51;;;;;;;4.80;3.75;;;31.00;57.30;;;;;;6158390;23;20453;-81
2023/09/07 14:06:19;;;;;;;4.10;3.70;;;31.00;58.00;;;;;;6157501;23;20389;-79